Data for 02/28/2016

Time Sea-Level Adjusted Pressure Absolute Pressure Temperature Relative Humidity Dew Point   
(mb) (inHg) (mb) (inHg) (C) (F) (%) (C) (F)
00:05 1018 30.06 847 25.01 4.2 39.6 59 -3 26.6
00:10 1018 30.06 847 25.01 4.2 39.6 58 -3.2 26.2
00:15 1018 30.06 848 25.04 4.2 39.6 59 -3.2 26.3
00:20 1018 30.06 848 25.04 4.1 39.4 59 -3.2 26.2
00:25 1019 30.09 848 25.04 4.1 39.3 59 -3.2 26.2
00:30 1019 30.09 848 25.04 3.9 39.1 60 -3.2 26.3
00:35 1019 30.09 848 25.04 3.8 38.8 60 -3.2 26.3
00:40 1019 30.09 848 25.04 3.7 38.6 61 -3.1 26.4
00:45 1019 30.09 848 25.04 3.5 38.2 62 -3.1 26.4
00:50 1019 30.09 848 25.04 3.3 37.9 63 -3.1 26.5
00:55 1019 30.09 848 25.04 3.1 37.5 64 -3.1 26.4
01:00 1019 30.09 848 25.04 2.8 37 66 -3 26.6
01:05 1019 30.09 848 25.04 2.3 36.1 68 -3.1 26.5
01:10 1019 30.09 848 25.04 1.9 35.4 68 -3.4 25.9
01:15 1019 30.09 848 25.04 2.3 36.1 66 -3.4 25.8
01:20 1019 30.09 848 25.04 2.7 36.9 64 -3.5 25.7
01:25 1019 30.09 848 25.04 3 37.3 63 -3.3 26
01:30 1019 30.09 848 25.04 3 37.4 63 -3.3 26.1
01:35 1019 30.09 848 25.04 3 37.4 63 -3.3 26
01:40 1019 30.09 849 25.07 3 37.5 63 -3.4 26
01:45 1019 30.09 849 25.07 3.1 37.6 63 -3.3 26
01:50 1019 30.09 849 25.07 3 37.3 64 -3.3 26.1
01:55 1019 30.09 849 25.07 2.8 37 64 -3.3 26.1
02:00 1019 30.09 849 25.07 2.2 36 67 -3.2 26.3
02:05 1019 30.09 849 25.07 1.6 34.9 69 -3.5 25.7
02:10 1020 30.12 849 25.07 1.7 35.1 67 -3.8 25.2
02:15 1020 30.12 849 25.07 1.9 35.5 67 -3.6 25.5
02:20 1020 30.12 849 25.07 2 35.6 66 -3.7 25.4
02:25 1020 30.12 849 25.07 1.9 35.4 66 -3.8 25.2
02:30 1020 30.12 849 25.07 2.1 35.9 65 -3.8 25.2
02:35 1020 30.12 849 25.07 2.3 36.1 64 -3.9 25
02:40 1020 30.12 849 25.07 2.4 36.4 64 -3.7 25.3
02:45 1020 30.12 849 25.07 2.4 36.4 64 -3.8 25.2
02:50 1020 30.12 849 25.07 2.3 36.1 64 -3.8 25.1
02:55 1019 30.09 849 25.07 2 35.6 65 -3.9 25
03:00 1019 30.09 849 25.07 2 35.6 63 -4.2 24.4
03:05 1020 30.12 849 25.07 2.2 35.9 64 -4.1 24.7
03:10 1020 30.12 849 25.07 1.9 35.5 65 -3.9 25
03:15 1020 30.12 849 25.07 1.6 34.8 68 -3.8 25.1
03:20 1020 30.12 849 25.07 1.3 34.3 68 -4 24.8
03:25 1020 30.12 849 25.07 1.4 34.6 68 -3.9 25
03:30 1020 30.12 849 25.07 1.7 35.1 65 -4.1 24.6
03:35 1020 30.12 849 25.07 2 35.5 65 -4 24.9
03:40 1020 30.12 849 25.07 2.1 35.8 65 -3.9 25
03:45 1020 30.12 849 25.07 2.1 35.8 65 -3.8 25.1
03:50 1020 30.12 849 25.07 2.2 36 63 -4.2 24.5
03:55 1020 30.12 849 25.07 2.6 36.8 61 -4.1 24.5
04:00 1020 30.12 849 25.07 2.9 37.2 60 -4.1 24.6
04:05 1020 30.12 849 25.07 2.9 37.3 62 -3.7 25.4
04:10 1020 30.12 849 25.07 2.1 35.8 66 -3.6 25.5
04:15 1020 30.12 849 25.07 1.7 35.1 66 -4 24.8
04:20 1020 30.12 849 25.07 1.9 35.4 64 -4.1 24.5
04:25 1020 30.12 849 25.07 1.9 35.4 65 -3.9 25
04:30 1020 30.12 849 25.07 1.6 34.8 69 -3.5 25.6
04:35 1020 30.12 849 25.07 1.2 34.1 70 -3.7 25.4
04:40 1020 30.12 849 25.07 0.9 33.7 71 -3.8 25.2
04:45 1020 30.12 849 25.07 0.7 33.3 72 -3.7 25.3
04:50 1020 30.12 849 25.07 0.4 32.8 73 -3.9 25
04:55 1019 30.09 849 25.07 0.4 32.7 72 -4 24.8
05:00 1019 30.09 849 25.07 0.4 32.6 73 -3.9 24.9
05:05 1019 30.09 849 25.07 0.2 32.4 73 -4 24.7
05:10 1019 30.09 849 25.07 -0 31.9 75 -4 24.9
05:15 1019 30.09 849 25.07 -0.4 31.2 77 -4 24.8
05:20 1019 30.09 849 25.07 -0.5 31.1 76 -4.2 24.4
05:25 1019 30.09 849 25.07 0 32 72 -4.4 24.2
05:30 1019 30.09 849 25.07 0.5 32.9 70 -4.3 24.2
05:35 1019 30.09 849 25.07 0.6 33.2 69 -4.3 24.2
05:40 1019 30.09 849 25.07 0.8 33.5 68 -4.4 24.2
05:45 1019 30.09 849 25.07 1 33.8 67 -4.5 24
05:50 1019 30.09 849 25.07 1.1 33.9 67 -4.3 24.3
05:55 1019 30.09 849 25.07 1 33.8 68 -4.2 24.5
06:00 1020 30.12 849 25.07 0.8 33.4 70 -4.2 24.5
06:05 1020 30.12 849 25.07 0.7 33.2 70 -4.2 24.4
06:10 1020 30.12 849 25.07 0.5 32.9 71 -4.2 24.4
06:15 1020 30.12 849 25.07 0.4 32.6 71 -4.4 24.1
06:20 1020 30.12 849 25.07 0.5 32.9 69 -4.5 23.9
06:25 1020 30.12 849 25.07 0.4 32.8 71 -4.3 24.3
06:30 1020 30.12 849 25.07 0.7 33.2 69 -4.4 24.1
06:35 1020 30.12 849 25.07 1 33.8 68 -4.3 24.3
06:40 1020 30.12 849 25.07 1.1 34 67 -4.3 24.3
06:45 1020 30.12 849 25.07 0.9 33.6 69 -4.2 24.4
06:50 1020 30.12 849 25.07 0.7 33.2 69 -4.3 24.2
06:55 1020 30.12 849 25.07 0.3 32.6 71 -4.3 24.2
07:00 1020 30.12 849 25.07 -0.1 31.7 73 -4.4 24
07:05 1020 30.12 849 25.07 0 32 73 -4.2 24.4
07:10 1020 30.12 849 25.07 0.2 32.3 74 -4 24.8
07:15 1019 30.09 849 25.07 -0.2 31.7 73 -4.5 24
07:20 1019 30.09 849 25.07 -0.4 31.3 73 -4.6 23.7
07:25 1020 30.12 849 25.07 -0.2 31.6 73 -4.5 23.9
07:30 1020 30.12 849 25.07 -0.2 31.6 74 -4.4 24.1
07:35 1020 30.12 849 25.07 0.1 32.3 73 -4.1 24.7
07:40 1020 30.12 849 25.07 0.3 32.5 73 -4 24.7
07:45 1019 30.09 849 25.07 0 32 73 -4.2 24.5
07:50 1019 30.09 849 25.07 -0.1 31.7 73 -4.4 24.1
07:55 1019 30.09 849 25.07 0.1 32.1 72 -4.4 24.1
08:00 1019 30.09 849 25.07 0.2 32.4 70 -4.7 23.5
08:05 1019 30.09 849 25.07 0.3 32.5 70 -4.6 23.6
08:10 1019 30.09 848 25.04 0.3 32.6 70 -4.5 23.8
08:15 1019 30.09 848 25.04 0.2 32.4 71 -4.4 24
08:20 1019 30.09 848 25.04 0.3 32.5 69 -4.7 23.5
08:25 1019 30.09 849 25.07 0.4 32.8 68 -4.7 23.5
08:30 1019 30.09 849 25.07 0.5 33 68 -4.6 23.7
08:35 1019 30.09 849 25.07 0.5 32.9 68 -4.7 23.6
08:40 1019 30.09 849 25.07 0.3 32.5 69 -4.7 23.5
08:45 1019 30.09 849 25.07 0.9 33.7 63 -5.3 22.4
08:50 1019 30.09 849 25.07 1.6 34.9 64 -4.4 24.1
08:55 1019 30.09 849 25.07 1.2 34.1 68 -4.2 24.5
09:00 1019 30.09 849 25.07 0.7 33.3 68 -4.4 24.1
09:05 1019 30.09 848 25.04 1.3 34.3 66 -4.4 24.1
09:10 1019 30.09 848 25.04 1.6 34.8 65 -4.4 24.1
09:15 1019 30.09 848 25.04 1.8 35.3 64 -4.2 24.4
09:20 1019 30.09 848 25.04 2.3 36.2 62 -4.3 24.3
09:25 1019 30.09 848 25.04 2.6 36.6 62 -3.9 25
09:30 1019 30.09 848 25.04 2.6 36.8 62 -4 24.8
09:35 1019 30.09 848 25.04 2.2 36 65 -3.8 25.2
09:40 1019 30.09 848 25.04 2.1 35.8 65 -3.7 25.4
09:45 1019 30.09 848 25.04 2.2 36 66 -3.4 25.9
09:50 1019 30.09 848 25.04 2.8 37.1 61 -4.1 24.7
09:55 1019 30.09 848 25.04 3.2 37.8 60 -3.8 25.1
10:00 1019 30.09 848 25.04 3.5 38.3 61 -3.3 26.1
10:05 1019 30.09 848 25.04 3.9 39 59 -3.3 26.1
10:10 1019 30.09 848 25.04 4 39.2 59 -3.4 25.9
10:15 1019 30.09 848 25.04 4 39.3 58 -3.5 25.7
10:20 1019 30.09 848 25.04 4.4 39.9 54 -4.1 24.6
10:25 1019 30.09 848 25.04 4.9 40.8 51 -4.4 24.1
10:30 1019 30.09 848 25.04 5.4 41.8 49 -4.5 23.9
10:35 1019 30.09 848 25.04 6.3 43.4 44 -5 23.1
10:40 1019 30.09 848 25.04 6.6 43.9 46 -4.2 24.5
10:45 1019 30.09 848 25.04 5.7 42.3 49 -4.2 24.5
10:50 1019 30.09 848 25.04 5.6 42.1 50 -4 24.7
10:55 1019 30.09 848 25.04 5.7 42.2 48 -4.5 23.9
11:00 1019 30.09 848 25.04 6.5 43.7 44 -4.8 23.3
11:05 1019 30.09 848 25.04 7 44.6 44 -4.4 24.2
11:10 1018 30.06 848 25.04 7 44.6 44 -4.4 24.1
11:15 1018 30.06 848 25.04 7 44.6 43 -4.6 23.7
11:20 1018 30.06 848 25.04 7.5 45.4 43 -4.3 24.3
11:25 1018 30.06 847 25.01 7.3 45.2 43 -4.4 24.1
11:30 1018 30.06 847 25.01 7.8 46.1 41 -4.5 24
11:35 1018 30.06 847 25.01 7.6 45.8 41 -4.7 23.6
11:40 1018 30.06 847 25.01 7.8 46 41 -4.6 23.7
11:45 1018 30.06 847 25.01 7.1 44.7 45 -4 24.7
11:50 1018 30.06 847 25.01 6.7 44.1 43 -4.8 23.3
11:55 1018 30.06 847 25.01 6.3 43.4 43 -5.3 22.5
12:00 1017 30.03 847 25.01 7.1 44.7 43 -4.7 23.5
12:05 1017 30.03 846 24.98 6.8 44.2 44 -4.7 23.6
12:10 1017 30.03 846 24.98 7.2 45 41 -5.1 22.9
12:15 1017 30.03 846 24.98 8.2 46.8 38 -5.4 22.3
12:20 1017 30.03 846 24.98 8.6 47.5 35 -6 21.3
12:25 1017 30.03 846 24.98 9 48.2 36 -5.4 22.3
12:30 1017 30.03 846 24.98 8.6 47.5 35 -6.1 21
12:35 1017 30.03 846 24.98 9.1 48.4 34 -6.1 21
12:40 1017 30.03 846 24.98 9.6 49.3 32 -6.3 20.7
12:45 1017 30.03 846 24.98 10 50 32 -6 21.1
12:50 1017 30.03 846 24.98 10.1 50.2 32 -6 21.3
12:55 1017 30.03 846 24.98 10.7 51.2 30 -6.3 20.7
13:00 1017 30.03 846 24.98 10.4 50.7 31 -5.8 21.5
13:05 1017 30.03 846 24.98 10.2 50.3 32 -5.9 21.4
13:10 1017 30.03 846 24.98 9.7 49.5 31 -6.4 20.5
13:15 1017 30.03 846 24.98 10.1 50.1 31 -6.2 20.9
13:20 1016 30 846 24.98 9.9 49.9 34 -5.3 22.4
13:25 1016 30 846 24.98 9.4 48.9 33 -6 21.3
13:30 1016 30 846 24.98 9.3 48.8 33 -6 21.2
13:35 1016 30 846 24.98 9.3 48.8 35 -5.4 22.3
13:40 1016 30 845 24.95 9.1 48.4 33 -6.3 20.7
13:45 1016 30 845 24.95 9.5 49 33 -6.1 21
13:50 1016 30 845 24.95 9.2 48.6 33 -6.3 20.7
13:55 1016 30 845 24.95 9.2 48.6 34 -5.9 21.5
14:00 1016 30 845 24.95 9.1 48.3 33 -6.3 20.7
14:05 1016 30 845 24.95 8.9 48.1 34 -6.1 21.1
14:10 1016 30 845 24.95 9 48.1 34 -6 21.1
14:15 1016 30 845 24.95 8.9 48 34 -6.1 21
14:20 1016 30 845 24.95 8.8 47.8 33 -6.7 20
14:25 1016 30 845 24.95 9 48.1 33 -6.6 20.2
14:30 1016 30 845 24.95 9.4 48.8 32 -6.6 20.1
14:35 1016 30 845 24.95 9.4 49 32 -6.4 20.4
14:40 1016 30 845 24.95 9.4 48.9 32 -6.3 20.6
14:45 1016 30 845 24.95 9.3 48.7 32 -6.4 20.6
14:50 1016 30 845 24.95 9.2 48.6 33 -6.1 21
14:55 1016 30 845 24.95 8.9 48 33 -6.3 20.6
15:00 1016 30 845 24.95 8.8 47.8 34 -6.4 20.5
15:05 1016 30 845 24.95 8.8 47.9 34 -6.2 20.8
15:10 1016 30 845 24.95 8.6 47.5 33 -6.8 19.8
15:15 1016 30 845 24.95 8.6 47.4 33 -6.8 19.8
15:20 1016 30 845 24.95 8.8 47.9 30 -7.7 18.2
15:25 1016 30 845 24.95 9.1 48.4 29 -7.9 17.8
15:30 1016 30 845 24.95 9.3 48.7 28 -8.2 17.2
15:35 1015 29.97 845 24.95 9.5 49.2 27 -8.8 16.2
15:40 1015 29.97 845 24.95 9.6 49.2 26 -9 15.8
15:45 1015 29.97 845 24.95 9.4 48.8 28 -8.1 17.4
15:50 1015 29.97 845 24.95 9.3 48.7 30 -7.2 19
15:55 1015 29.97 845 24.95 9.1 48.4 29 -7.9 17.7
16:00 1015 29.97 845 24.95 9.2 48.5 31 -7 19.3
16:05 1015 29.97 844 24.92 9.5 49.2 28 -7.9 17.9
16:10 1015 29.97 844 24.92 10 49.9 28 -7.7 18.2
16:15 1015 29.97 844 24.92 10.9 51.7 26 -8 17.7
16:20 1015 29.97 844 24.92 11.6 52.8 25 -7.9 17.8
16:25 1015 29.97 844 24.92 11.7 53 24 -8.2 17.2
16:30 1015 29.97 844 24.92 11.3 52.4 25 -7.8 17.9
16:35 1015 29.97 844 24.92 11.4 52.4 24 -8.7 16.3
16:40 1015 29.97 844 24.92 11.9 53.4 22 -9 15.8
16:45 1015 29.97 844 24.92 12.1 53.7 23 -8.7 16.4
16:50 1015 29.97 844 24.92 12.6 54.7 21 -9 15.9
16:55 1015 29.97 844 24.92 12.5 54.5 22 -8.8 16.2
17:00 1015 29.97 844 24.92 12.6 54.8 22 -8.8 16.2
17:05 1015 29.97 844 24.92 12.9 55.2 21 -8.7 16.3
17:10 1015 29.97 844 24.92 13.3 55.9 21 -8.7 16.3
17:15 1015 29.97 844 24.92 13.6 56.4 21 -8.6 16.6
17:20 1015 29.97 844 24.92 13.4 56.2 22 -8 17.6
17:25 1015 29.97 844 24.92 13 55.3 23 -7.9 17.9
17:30 1014 29.94 844 24.92 12.7 54.8 23 -8.1 17.4
17:35 1014 29.94 844 24.92 12.4 54.3 24 -7.7 18.2
17:40 1014 29.94 844 24.92 12.5 54.5 23 -7.9 17.7
17:45 1014 29.94 843 24.89 12.7 54.8 23 -7.7 18.1
17:50 1014 29.94 844 24.92 12.3 54.1 23 -8 17.6
17:55 1014 29.94 843 24.89 12 53.7 25 -7.3 18.9
18:00 1014 29.94 844 24.92 11.8 53.3 25 -7.7 18.2
18:05 1014 29.94 844 24.92 11.7 53.1 26 -7.2 19
18:10 1014 29.94 844 24.92 11.5 52.6 27 -6.9 19.7
18:15 1014 29.94 843 24.89 11.3 52.3 27 -6.9 19.6
18:20 1014 29.94 844 24.92 11.1 52 27 -7.2 19.1
18:25 1014 29.94 844 24.92 10.9 51.7 27 -7.2 19.1
18:30 1014 29.94 844 24.92 10.8 51.4 29 -6.8 19.8
18:35 1014 29.94 844 24.92 10.5 50.9 29 -6.5 20.2
18:40 1014 29.94 844 24.92 10.3 50.5 29 -6.8 19.8
18:45 1015 29.97 844 24.92 10.2 50.3 30 -6.7 19.9
18:50 1015 29.97 844 24.92 10.1 50.1 31 -6.4 20.5
18:55 1015 29.97 844 24.92 9.9 49.8 31 -6.5 20.2
19:00 1014 29.94 844 24.92 9.7 49.5 31 -6.4 20.5
19:05 1014 29.94 844 24.92 9.6 49.2 31 -6.5 20.2
19:10 1014 29.94 844 24.92 9.4 48.9 32 -6.5 20.4
19:15 1014 29.94 843 24.89 9.4 48.8 32 -6.6 20.1
19:20 1014 29.94 843 24.89 9.3 48.7 33 -6.1 21
19:25 1014 29.94 844 24.92 9.1 48.4 32 -6.8 19.8
19:30 1014 29.94 844 24.92 9.1 48.5 33 -6.4 20.5
19:35 1014 29.94 844 24.92 9.1 48.4 33 -6.4 20.4
19:40 1014 29.94 843 24.89 9.3 48.7 32 -6.8 19.8
19:45 1014 29.94 843 24.89 9.4 49 32 -6.5 20.2
19:50 1014 29.94 844 24.92 9.4 48.8 32 -6.7 20
19:55 1014 29.94 844 24.92 9.3 48.7 32 -6.5 20.3
20:00 1014 29.94 844 24.92 9.2 48.5 32 -6.5 20.4
20:05 1014 29.94 844 24.92 9.2 48.6 32 -6.4 20.5
20:10 1014 29.94 843 24.89 9.1 48.4 32 -6.6 20.1
20:15 1014 29.94 843 24.89 9.1 48.3 33 -6.5 20.2
20:20 1014 29.94 843 24.89 8.9 48 33 -6.4 20.5
20:25 1014 29.94 843 24.89 8.8 47.8 34 -6.3 20.6
20:30 1014 29.94 843 24.89 8.6 47.4 35 -6.1 21
20:35 1014 29.94 843 24.89 8.5 47.4 34 -6.5 20.4
20:40 1014 29.94 843 24.89 8.7 47.6 34 -6.2 20.8
20:45 1014 29.94 843 24.89 8.5 47.4 36 -5.7 21.7
20:50 1014 29.94 843 24.89 8.2 46.8 37 -5.7 21.8
20:55 1014 29.94 843 24.89 8.4 47 33 -6.9 19.6
21:00 1014 29.94 843 24.89 8.8 47.9 33 -6.4 20.5
21:05 1014 29.94 843 24.89 8.6 47.5 36 -5.8 21.5
21:10 1014 29.94 843 24.89 8.3 46.9 35 -6.1 21
21:15 1014 29.94 843 24.89 8.3 47 36 -5.9 21.4
21:20 1013 29.91 843 24.89 8.4 47.1 35 -6.2 20.8
21:25 1013 29.91 843 24.89 8.7 47.6 34 -6.5 20.4
21:30 1013 29.91 843 24.89 8.8 47.9 34 -6.3 20.7
21:35 1013 29.91 843 24.89 8.8 47.9 34 -6.3 20.7
21:40 1013 29.91 843 24.89 8.7 47.7 34 -6.2 20.9
21:45 1013 29.91 843 24.89 8.7 47.7 34 -6.2 20.8
21:50 1013 29.91 843 24.89 8.8 47.8 34 -6.1 21
21:55 1013 29.91 843 24.89 8.7 47.6 35 -6 21.3
22:00 1013 29.91 843 24.89 8.5 47.4 36 -5.8 21.6
22:05 1013 29.91 843 24.89 8.5 47.3 34 -6.4 20.5
22:10 1013 29.91 843 24.89 8.6 47.4 34 -6.4 20.4
22:15 1014 29.94 843 24.89 8.9 48 33 -6.3 20.6
22:20 1014 29.94 843 24.89 9 48.1 34 -6 21.1
22:25 1014 29.94 843 24.89 8.8 47.9 35 -5.9 21.3
22:30 1013 29.91 843 24.89 8.7 47.7 35 -5.8 21.5
22:35 1013 29.91 843 24.89 8.6 47.5 36 -5.6 21.9
22:40 1014 29.94 843 24.89 8.6 47.4 35 -5.9 21.5
22:45 1014 29.94 843 24.89 8.8 47.9 34 -6 21.2
22:50 1014 29.94 843 24.89 9 48.1 34 -6.2 20.9
22:55 1014 29.94 843 24.89 9 48.1 34 -6.2 20.9
23:00 1014 29.94 843 24.89 8.9 48.1 34 -6.1 21
23:05 1014 29.94 843 24.89 8.9 48 34 -6.1 20.9
23:10 1014 29.94 843 24.89 8.8 47.9 35 -5.9 21.4
23:15 1014 29.94 843 24.89 8.9 47.9 35 -5.7 21.7
23:20 1014 29.94 843 24.89 8.7 47.7 37 -5.2 22.7
23:25 1014 29.94 843 24.89 8.7 47.7 37 -5.1 22.8
23:30 1014 29.94 843 24.89 8.5 47.4 39 -4.7 23.6
23:35 1014 29.94 843 24.89 8.3 46.9 40 -4.6 23.8
23:40 1014 29.94 843 24.89 8.2 46.8 41 -4.4 24.1
23:45 1014 29.94 843 24.89 8 46.4 41 -4.4 24.1
23:50 1014 29.94 843 24.89 7.9 46.2 41 -4.5 23.9
23:55 1014 29.94 843 24.89 7.9 46.2 40 -4.9 23.2
24:00 1013 29.91 843 24.89 8.1 46.5 41 -4.5 23.9